sensor_id;sensor_type;location;lat;lon;timestamp;P1;durP1;ratioP1;P2;durP2;ratioP2
80936;SDS011;70395;51.382;7.074;2023-06-05T00:01:22;6.93;;;2.57;;
80936;SDS011;70395;51.382;7.074;2023-06-05T00:03:48;3.33;;;2.20;;
80936;SDS011;70395;51.382;7.074;2023-06-05T00:06:14;3.33;;;2.33;;
80936;SDS011;70395;51.382;7.074;2023-06-05T00:08:40;4.57;;;2.30;;
80936;SDS011;70395;51.382;7.074;2023-06-05T00:11:06;5.00;;;2.37;;
80936;SDS011;70395;51.382;7.074;2023-06-05T00:13:31;5.03;;;2.73;;
80936;SDS011;70395;51.382;7.074;2023-06-05T00:15:57;7.40;;;2.60;;
80936;SDS011;70395;51.382;7.074;2023-06-05T00:18:23;5.00;;;2.90;;
80936;SDS011;70395;51.382;7.074;2023-06-05T00:20:49;11.03;;;3.23;;
80936;SDS011;70395;51.382;7.074;2023-06-05T00:23:15;3.60;;;2.57;;
80936;SDS011;70395;51.382;7.074;2023-06-05T00:25:41;3.17;;;2.67;;
80936;SDS011;70395;51.382;7.074;2023-06-05T00:28:06;5.60;;;3.03;;
80936;SDS011;70395;51.382;7.074;2023-06-05T00:30:32;5.53;;;3.20;;
80936;SDS011;70395;51.382;7.074;2023-06-05T00:32:58;5.23;;;3.10;;
80936;SDS011;70395;51.382;7.074;2023-06-05T00:35:23;5.00;;;2.83;;
80936;SDS011;70395;51.382;7.074;2023-06-05T00:37:49;6.83;;;3.47;;
80936;SDS011;70395;51.382;7.074;2023-06-05T00:40:15;3.43;;;2.90;;
80936;SDS011;70395;51.382;7.074;2023-06-05T00:42:41;8.43;;;3.60;;
80936;SDS011;70395;51.382;7.074;2023-06-05T00:45:07;4.43;;;2.90;;
80936;SDS011;70395;51.382;7.074;2023-06-05T00:47:33;3.50;;;3.20;;
80936;SDS011;70395;51.382;7.074;2023-06-05T00:49:59;6.40;;;3.40;;
80936;SDS011;70395;51.382;7.074;2023-06-05T00:52:28;4.30;;;2.73;;
80936;SDS011;70395;51.382;7.074;2023-06-05T00:54:54;4.37;;;3.37;;
80936;SDS011;70395;51.382;7.074;2023-06-05T00:57:20;3.77;;;3.20;;
80936;SDS011;70395;51.382;7.074;2023-06-05T00:59:49;4.83;;;3.10;;
80936;SDS011;70395;51.382;7.074;2023-06-05T01:02:15;5.50;;;3.50;;
80936;SDS011;70395;51.382;7.074;2023-06-05T01:04:41;6.83;;;3.57;;
80936;SDS011;70395;51.382;7.074;2023-06-05T01:07:08;6.47;;;3.70;;
80936;SDS011;70395;51.382;7.074;2023-06-05T01:09:36;4.00;;;3.40;;
80936;SDS011;70395;51.382;7.074;2023-06-05T01:12:05;5.20;;;3.27;;
80936;SDS011;70395;51.382;7.074;2023-06-05T01:15:05;4.67;;;3.63;;
80936;SDS011;70395;51.382;7.074;2023-06-05T01:17:33;5.97;;;3.60;;
80936;SDS011;70395;51.382;7.074;2023-06-05T01:20:00;5.30;;;2.80;;
80936;SDS011;70395;51.382;7.074;2023-06-05T01:22:32;9.00;;;4.00;;
80936;SDS011;70395;51.382;7.074;2023-06-05T01:24:59;5.83;;;3.37;;
80936;SDS011;70395;51.382;7.074;2023-06-05T01:27:49;7.97;;;4.07;;
80936;SDS011;70395;51.382;7.074;2023-06-05T01:30:34;7.20;;;3.73;;
80936;SDS011;70395;51.382;7.074;2023-06-05T01:33:14;6.50;;;3.57;;
80936;SDS011;70395;51.382;7.074;2023-06-05T01:35:49;6.40;;;3.80;;
80936;SDS011;70395;51.382;7.074;2023-06-05T01:38:18;5.83;;;3.83;;
80936;SDS011;70395;51.382;7.074;2023-06-05T01:40:47;5.70;;;3.53;;
80936;SDS011;70395;51.382;7.074;2023-06-05T01:43:15;5.83;;;3.30;;
80936;SDS011;70395;51.382;7.074;2023-06-05T01:45:43;4.20;;;3.17;;
80936;SDS011;70395;51.382;7.074;2023-06-05T01:48:09;4.57;;;3.13;;
80936;SDS011;70395;51.382;7.074;2023-06-05T01:50:36;6.47;;;3.97;;
80936;SDS011;70395;51.382;7.074;2023-06-05T01:53:03;6.93;;;3.77;;
80936;SDS011;70395;51.382;7.074;2023-06-05T01:55:30;8.47;;;3.63;;
80936;SDS011;70395;51.382;7.074;2023-06-05T01:57:56;4.97;;;3.47;;
80936;SDS011;70395;51.382;7.074;2023-06-05T02:00:22;7.53;;;3.47;;
80936;SDS011;70395;51.382;7.074;2023-06-05T02:02:48;4.70;;;3.23;;
80936;SDS011;70395;51.382;7.074;2023-06-05T02:05:15;5.50;;;3.50;;
80936;SDS011;70395;51.382;7.074;2023-06-05T02:07:45;8.70;;;3.70;;
80936;SDS011;70395;51.382;7.074;2023-06-05T02:10:14;6.33;;;3.30;;
80936;SDS011;70395;51.382;7.074;2023-06-05T02:12:40;6.83;;;4.03;;
80936;SDS011;70395;51.382;7.074;2023-06-05T02:15:07;5.13;;;3.80;;
80936;SDS011;70395;51.382;7.074;2023-06-05T02:17:38;4.40;;;4.00;;
80936;SDS011;70395;51.382;7.074;2023-06-05T02:20:09;7.30;;;3.70;;
80936;SDS011;70395;51.382;7.074;2023-06-05T02:22:40;11.77;;;4.53;;
80936;SDS011;70395;51.382;7.074;2023-06-05T02:25:06;5.20;;;4.00;;
80936;SDS011;70395;51.382;7.074;2023-06-05T02:27:35;7.83;;;4.77;;
80936;SDS011;70395;51.382;7.074;2023-06-05T02:30:02;7.30;;;5.00;;
80936;SDS011;70395;51.382;7.074;2023-06-05T02:32:28;4.67;;;3.57;;
80936;SDS011;70395;51.382;7.074;2023-06-05T02:34:56;5.47;;;4.00;;
80936;SDS011;70395;51.382;7.074;2023-06-05T02:37:23;6.83;;;4.47;;
80936;SDS011;70395;51.382;7.074;2023-06-05T02:39:50;7.40;;;4.97;;
80936;SDS011;70395;51.382;7.074;2023-06-05T02:42:15;6.57;;;4.30;;
80936;SDS011;70395;51.382;7.074;2023-06-05T02:44:43;8.97;;;4.70;;
80936;SDS011;70395;51.382;7.074;2023-06-05T02:47:10;9.40;;;4.53;;
80936;SDS011;70395;51.382;7.074;2023-06-05T02:49:37;10.40;;;5.10;;
80936;SDS011;70395;51.382;7.074;2023-06-05T02:52:03;6.80;;;4.97;;
80936;SDS011;70395;51.382;7.074;2023-06-05T02:54:30;7.13;;;5.10;;
80936;SDS011;70395;51.382;7.074;2023-06-05T02:56:56;7.57;;;4.50;;
80936;SDS011;70395;51.382;7.074;2023-06-05T02:59:25;10.47;;;5.13;;
80936;SDS011;70395;51.382;7.074;2023-06-05T03:01:52;6.60;;;5.17;;
80936;SDS011;70395;51.382;7.074;2023-06-05T03:04:19;7.70;;;5.10;;
80936;SDS011;70395;51.382;7.074;2023-06-05T03:06:47;6.10;;;5.00;;
80936;SDS011;70395;51.382;7.074;2023-06-05T03:09:13;10.57;;;5.20;;
80936;SDS011;70395;51.382;7.074;2023-06-05T03:11:39;7.33;;;5.27;;
80936;SDS011;70395;51.382;7.074;2023-06-05T03:14:05;5.40;;;4.77;;
80936;SDS011;70395;51.382;7.074;2023-06-05T03:16:31;5.70;;;4.30;;
80936;SDS011;70395;51.382;7.074;2023-06-05T03:18:58;5.90;;;4.87;;
80936;SDS011;70395;51.382;7.074;2023-06-05T03:21:24;6.20;;;5.03;;
80936;SDS011;70395;51.382;7.074;2023-06-05T03:23:50;12.43;;;5.50;;
80936;SDS011;70395;51.382;7.074;2023-06-05T03:26:16;7.10;;;5.07;;
80936;SDS011;70395;51.382;7.074;2023-06-05T03:28:41;8.47;;;5.50;;
80936;SDS011;70395;51.382;7.074;2023-06-05T03:31:07;8.50;;;6.03;;
80936;SDS011;70395;51.382;7.074;2023-06-05T03:33:35;7.23;;;4.27;;
80936;SDS011;70395;51.382;7.074;2023-06-05T03:36:01;9.87;;;5.13;;
80936;SDS011;70395;51.382;7.074;2023-06-05T03:38:27;8.50;;;5.17;;
80936;SDS011;70395;51.382;7.074;2023-06-05T03:40:52;7.57;;;5.07;;
80936;SDS011;70395;51.382;7.074;2023-06-05T03:43:18;12.10;;;5.47;;
80936;SDS011;70395;51.382;7.074;2023-06-05T03:45:44;9.20;;;5.77;;
80936;SDS011;70395;51.382;7.074;2023-06-05T03:48:10;14.93;;;6.50;;
80936;SDS011;70395;51.382;7.074;2023-06-05T03:50:36;8.33;;;5.63;;
80936;SDS011;70395;51.382;7.074;2023-06-05T03:53:06;10.07;;;5.57;;
80936;SDS011;70395;51.382;7.074;2023-06-05T03:55:34;8.40;;;5.67;;
80936;SDS011;70395;51.382;7.074;2023-06-05T03:58:18;8.07;;;5.10;;
80936;SDS011;70395;51.382;7.074;2023-06-05T04:00:47;5.23;;;4.63;;
80936;SDS011;70395;51.382;7.074;2023-06-05T04:03:16;7.67;;;5.60;;
80936;SDS011;70395;51.382;7.074;2023-06-05T04:05:43;11.50;;;5.97;;
80936;SDS011;70395;51.382;7.074;2023-06-05T04:08:09;9.00;;;5.80;;
80936;SDS011;70395;51.382;7.074;2023-06-05T04:10:35;8.20;;;5.70;;
80936;SDS011;70395;51.382;7.074;2023-06-05T04:13:02;7.67;;;5.30;;
80936;SDS011;70395;51.382;7.074;2023-06-05T04:15:28;9.57;;;5.77;;
80936;SDS011;70395;51.382;7.074;2023-06-05T04:17:54;6.30;;;5.23;;
80936;SDS011;70395;51.382;7.074;2023-06-05T04:20:20;7.90;;;5.70;;
80936;SDS011;70395;51.382;7.074;2023-06-05T04:22:47;8.83;;;5.23;;
80936;SDS011;70395;51.382;7.074;2023-06-05T04:25:13;9.03;;;5.73;;
80936;SDS011;70395;51.382;7.074;2023-06-05T04:27:40;7.23;;;5.40;;
80936;SDS011;70395;51.382;7.074;2023-06-05T04:30:09;6.97;;;5.57;;
80936;SDS011;70395;51.382;7.074;2023-06-05T04:32:38;10.13;;;6.00;;
80936;SDS011;70395;51.382;7.074;2023-06-05T04:35:05;7.40;;;6.27;;
80936;SDS011;70395;51.382;7.074;2023-06-05T04:37:33;7.73;;;6.60;;
80936;SDS011;70395;51.382;7.074;2023-06-05T04:40:03;8.70;;;6.07;;
80936;SDS011;70395;51.382;7.074;2023-06-05T04:42:31;8.20;;;5.90;;
80936;SDS011;70395;51.382;7.074;2023-06-05T04:44:58;9.00;;;5.93;;
80936;SDS011;70395;51.382;7.074;2023-06-05T04:47:27;7.80;;;6.10;;
80936;SDS011;70395;51.382;7.074;2023-06-05T04:49:53;10.10;;;6.00;;
80936;SDS011;70395;51.382;7.074;2023-06-05T04:52:20;8.70;;;5.77;;
80936;SDS011;70395;51.382;7.074;2023-06-05T04:54:46;8.67;;;7.07;;
80936;SDS011;70395;51.382;7.074;2023-06-05T04:57:12;8.13;;;5.90;;
80936;SDS011;70395;51.382;7.074;2023-06-05T04:59:38;11.73;;;7.10;;
80936;SDS011;70395;51.382;7.074;2023-06-05T05:02:05;9.37;;;6.30;;
80936;SDS011;70395;51.382;7.074;2023-06-05T05:04:30;8.47;;;7.27;;
80936;SDS011;70395;51.382;7.074;2023-06-05T05:06:57;8.70;;;7.00;;
80936;SDS011;70395;51.382;7.074;2023-06-05T05:09:29;9.50;;;6.23;;
80936;SDS011;70395;51.382;7.074;2023-06-05T05:11:58;9.97;;;6.50;;
80936;SDS011;70395;51.382;7.074;2023-06-05T05:14:25;9.13;;;6.70;;
80936;SDS011;70395;51.382;7.074;2023-06-05T05:16:54;12.63;;;6.37;;
80936;SDS011;70395;51.382;7.074;2023-06-05T05:19:21;11.47;;;6.43;;
80936;SDS011;70395;51.382;7.074;2023-06-05T05:21:49;9.43;;;6.60;;
80936;SDS011;70395;51.382;7.074;2023-06-05T05:24:16;10.10;;;6.80;;
80936;SDS011;70395;51.382;7.074;2023-06-05T05:26:41;9.03;;;7.80;;
80936;SDS011;70395;51.382;7.074;2023-06-05T05:29:07;10.53;;;6.70;;
80936;SDS011;70395;51.382;7.074;2023-06-05T05:31:34;8.97;;;7.17;;
80936;SDS011;70395;51.382;7.074;2023-06-05T05:33:59;9.00;;;5.90;;
80936;SDS011;70395;51.382;7.074;2023-06-05T05:36:25;7.40;;;6.23;;
80936;SDS011;70395;51.382;7.074;2023-06-05T05:38:52;12.07;;;7.47;;
80936;SDS011;70395;51.382;7.074;2023-06-05T05:41:19;10.50;;;6.70;;
80936;SDS011;70395;51.382;7.074;2023-06-05T05:43:46;9.97;;;7.63;;
80936;SDS011;70395;51.382;7.074;2023-06-05T05:46:12;8.60;;;7.20;;
80936;SDS011;70395;51.382;7.074;2023-06-05T05:48:38;11.20;;;7.40;;
80936;SDS011;70395;51.382;7.074;2023-06-05T05:51:05;9.97;;;8.17;;
80936;SDS011;70395;51.382;7.074;2023-06-05T05:53:32;7.33;;;6.53;;
80936;SDS011;70395;51.382;7.074;2023-06-05T05:55:58;8.80;;;7.03;;
80936;SDS011;70395;51.382;7.074;2023-06-05T05:58:24;10.63;;;6.90;;
80936;SDS011;70395;51.382;7.074;2023-06-05T06:00:50;9.43;;;6.93;;
80936;SDS011;70395;51.382;7.074;2023-06-05T06:03:16;11.00;;;7.40;;
80936;SDS011;70395;51.382;7.074;2023-06-05T06:05:43;8.67;;;7.20;;
80936;SDS011;70395;51.382;7.074;2023-06-05T06:08:12;13.47;;;7.10;;
80936;SDS011;70395;51.382;7.074;2023-06-05T06:10:38;9.37;;;6.80;;
80936;SDS011;70395;51.382;7.074;2023-06-05T06:13:06;12.60;;;7.40;;
80936;SDS011;70395;51.382;7.074;2023-06-05T06:15:32;8.77;;;7.53;;
80936;SDS011;70395;51.382;7.074;2023-06-05T06:17:58;10.60;;;7.27;;
80936;SDS011;70395;51.382;7.074;2023-06-05T06:20:27;16.50;;;7.67;;
80936;SDS011;70395;51.382;7.074;2023-06-05T06:22:53;11.13;;;6.80;;
80936;SDS011;70395;51.382;7.074;2023-06-05T06:25:20;11.73;;;7.37;;
80936;SDS011;70395;51.382;7.074;2023-06-05T06:27:46;11.70;;;8.30;;
80936;SDS011;70395;51.382;7.074;2023-06-05T06:30:18;10.80;;;8.17;;
80936;SDS011;70395;51.382;7.074;2023-06-05T06:32:45;11.10;;;7.93;;
80936;SDS011;70395;51.382;7.074;2023-06-05T06:35:11;16.23;;;8.03;;
80936;SDS011;70395;51.382;7.074;2023-06-05T06:37:39;9.70;;;7.80;;
80936;SDS011;70395;51.382;7.074;2023-06-05T06:40:05;8.43;;;7.00;;
80936;SDS011;70395;51.382;7.074;2023-06-05T06:42:36;9.43;;;6.97;;
80936;SDS011;70395;51.382;7.074;2023-06-05T06:45:03;10.63;;;7.63;;
80936;SDS011;70395;51.382;7.074;2023-06-05T06:47:29;9.17;;;7.17;;
80936;SDS011;70395;51.382;7.074;2023-06-05T06:49:55;14.93;;;7.23;;
80936;SDS011;70395;51.382;7.074;2023-06-05T06:52:22;9.50;;;6.73;;
80936;SDS011;70395;51.382;7.074;2023-06-05T06:54:48;8.37;;;7.13;;
80936;SDS011;70395;51.382;7.074;2023-06-05T06:57:15;10.60;;;6.90;;
80936;SDS011;70395;51.382;7.074;2023-06-05T06:59:40;7.60;;;6.80;;
80936;SDS011;70395;51.382;7.074;2023-06-05T07:02:11;5.97;;;5.37;;
80936;SDS011;70395;51.382;7.074;2023-06-05T07:04:39;8.30;;;6.27;;
80936;SDS011;70395;51.382;7.074;2023-06-05T07:07:09;6.60;;;5.70;;
80936;SDS011;70395;51.382;7.074;2023-06-05T07:09:43;8.40;;;5.63;;
80936;SDS011;70395;51.382;7.074;2023-06-05T07:12:11;9.47;;;6.17;;
80936;SDS011;70395;51.382;7.074;2023-06-05T07:14:39;9.00;;;6.30;;
80936;SDS011;70395;51.382;7.074;2023-06-05T07:17:06;8.73;;;5.53;;
80936;SDS011;70395;51.382;7.074;2023-06-05T07:19:32;6.73;;;5.60;;
80936;SDS011;70395;51.382;7.074;2023-06-05T07:22:00;5.53;;;4.93;;
80936;SDS011;70395;51.382;7.074;2023-06-05T07:24:29;6.50;;;5.10;;
80936;SDS011;70395;51.382;7.074;2023-06-05T07:26:56;5.53;;;4.93;;
80936;SDS011;70395;51.382;7.074;2023-06-05T07:29:25;7.43;;;5.37;;
80936;SDS011;70395;51.382;7.074;2023-06-05T07:31:52;8.50;;;5.17;;
80936;SDS011;70395;51.382;7.074;2023-06-05T07:34:21;6.20;;;5.60;;
80936;SDS011;70395;51.382;7.074;2023-06-05T07:36:50;7.20;;;5.33;;
80936;SDS011;70395;51.382;7.074;2023-06-05T07:39:20;5.83;;;4.87;;
80936;SDS011;70395;51.382;7.074;2023-06-05T07:41:47;9.47;;;5.43;;
80936;SDS011;70395;51.382;7.074;2023-06-05T07:44:15;5.37;;;4.87;;
80936;SDS011;70395;51.382;7.074;2023-06-05T07:46:43;7.63;;;4.40;;
80936;SDS011;70395;51.382;7.074;2023-06-05T07:49:11;7.70;;;4.60;;
80936;SDS011;70395;51.382;7.074;2023-06-05T07:51:38;8.70;;;5.00;;
80936;SDS011;70395;51.382;7.074;2023-06-05T07:54:05;5.77;;;4.00;;
80936;SDS011;70395;51.382;7.074;2023-06-05T07:56:33;7.80;;;5.30;;
80936;SDS011;70395;51.382;7.074;2023-06-05T07:58:59;6.70;;;4.93;;
80936;SDS011;70395;51.382;7.074;2023-06-05T08:01:28;6.90;;;4.80;;
80936;SDS011;70395;51.382;7.074;2023-06-05T08:03:55;10.37;;;4.70;;
80936;SDS011;70395;51.382;7.074;2023-06-05T08:06:22;7.30;;;4.77;;
80936;SDS011;70395;51.382;7.074;2023-06-05T08:08:52;7.17;;;5.23;;
80936;SDS011;70395;51.382;7.074;2023-06-05T08:11:18;6.27;;;5.50;;
80936;SDS011;70395;51.382;7.074;2023-06-05T08:13:44;8.63;;;5.30;;
80936;SDS011;70395;51.382;7.074;2023-06-05T08:16:10;5.50;;;4.30;;
80936;SDS011;70395;51.382;7.074;2023-06-05T08:18:36;6.10;;;4.60;;
80936;SDS011;70395;51.382;7.074;2023-06-05T08:21:02;5.87;;;4.60;;
80936;SDS011;70395;51.382;7.074;2023-06-05T08:23:28;5.97;;;4.50;;
80936;SDS011;70395;51.382;7.074;2023-06-05T08:25:54;8.53;;;5.10;;
80936;SDS011;70395;51.382;7.074;2023-06-05T08:28:20;8.17;;;5.23;;
80936;SDS011;70395;51.382;7.074;2023-06-05T08:30:46;13.53;;;6.27;;
80936;SDS011;70395;51.382;7.074;2023-06-05T08:33:13;5.60;;;5.10;;
80936;SDS011;70395;51.382;7.074;2023-06-05T08:35:42;7.57;;;4.80;;
80936;SDS011;70395;51.382;7.074;2023-06-05T08:38:07;5.80;;;4.70;;
80936;SDS011;70395;51.382;7.074;2023-06-05T08:40:33;11.80;;;5.07;;
80936;SDS011;70395;51.382;7.074;2023-06-05T08:43:01;8.50;;;5.40;;
80936;SDS011;70395;51.382;7.074;2023-06-05T08:45:28;10.30;;;4.57;;
80936;SDS011;70395;51.382;7.074;2023-06-05T08:47:58;6.00;;;4.50;;
80936;SDS011;70395;51.382;7.074;2023-06-05T08:50:29;7.37;;;5.00;;
80936;SDS011;70395;51.382;7.074;2023-06-05T08:52:58;7.60;;;4.53;;
80936;SDS011;70395;51.382;7.074;2023-06-05T08:55:26;7.87;;;4.97;;
80936;SDS011;70395;51.382;7.074;2023-06-05T08:57:53;6.90;;;4.10;;
80936;SDS011;70395;51.382;7.074;2023-06-05T09:00:20;8.40;;;5.20;;
80936;SDS011;70395;51.382;7.074;2023-06-05T09:02:47;9.80;;;4.67;;
80936;SDS011;70395;51.382;7.074;2023-06-05T09:05:13;9.17;;;5.20;;
80936;SDS011;70395;51.382;7.074;2023-06-05T09:07:41;8.50;;;5.40;;
80936;SDS011;70395;51.382;7.074;2023-06-05T09:10:21;8.60;;;5.00;;
80936;SDS011;70395;51.382;7.074;2023-06-05T09:12:58;8.60;;;5.13;;
80936;SDS011;70395;51.382;7.074;2023-06-05T09:15:27;6.37;;;5.17;;
80936;SDS011;70395;51.382;7.074;2023-06-05T09:18:02;7.50;;;5.00;;
80936;SDS011;70395;51.382;7.074;2023-06-05T09:20:38;6.27;;;4.90;;
80936;SDS011;70395;51.382;7.074;2023-06-05T09:26:06;8.30;;;5.07;;
80936;SDS011;70395;51.382;7.074;2023-06-05T09:28:34;7.10;;;5.67;;
80936;SDS011;70395;51.382;7.074;2023-06-05T09:31:01;11.23;;;5.17;;
80936;SDS011;70395;51.382;7.074;2023-06-05T09:33:29;8.47;;;5.30;;
80936;SDS011;70395;51.382;7.074;2023-06-05T09:38:29;10.47;;;4.80;;
80936;SDS011;70395;51.382;7.074;2023-06-05T09:43:32;7.40;;;5.40;;
80936;SDS011;70395;51.382;7.074;2023-06-05T09:45:58;7.50;;;5.30;;
80936;SDS011;70395;51.382;7.074;2023-06-05T09:48:31;7.07;;;5.63;;
80936;SDS011;70395;51.382;7.074;2023-06-05T09:51:19;7.40;;;5.50;;
80936;SDS011;70395;51.382;7.074;2023-06-05T09:53:48;8.20;;;5.10;;
80936;SDS011;70395;51.382;7.074;2023-06-05T09:56:19;5.40;;;4.90;;
80936;SDS011;70395;51.382;7.074;2023-06-05T09:58:48;7.90;;;4.83;;
80936;SDS011;70395;51.382;7.074;2023-06-05T10:01:17;6.00;;;4.00;;
80936;SDS011;70395;51.382;7.074;2023-06-05T10:03:50;5.87;;;5.30;;
80936;SDS011;70395;51.382;7.074;2023-06-05T10:06:26;8.73;;;5.50;;
80936;SDS011;70395;51.382;7.074;2023-06-05T10:08:53;6.03;;;4.90;;
80936;SDS011;70395;51.382;7.074;2023-06-05T10:11:23;7.40;;;5.10;;
80936;SDS011;70395;51.382;7.074;2023-06-05T10:13:53;8.73;;;4.60;;
80936;SDS011;70395;51.382;7.074;2023-06-05T10:16:25;6.57;;;5.00;;
80936;SDS011;70395;51.382;7.074;2023-06-05T10:18:55;6.60;;;4.40;;
80936;SDS011;70395;51.382;7.074;2023-06-05T10:21:22;5.63;;;4.80;;
80936;SDS011;70395;51.382;7.074;2023-06-05T10:24:01;5.13;;;4.53;;
80936;SDS011;70395;51.382;7.074;2023-06-05T10:26:38;6.13;;;4.30;;
80936;SDS011;70395;51.382;7.074;2023-06-05T10:37:58;6.67;;;4.40;;
80936;SDS011;70395;51.382;7.074;2023-06-05T10:40:54;5.00;;;4.40;;
80936;SDS011;70395;51.382;7.074;2023-06-05T10:51:49;6.33;;;3.80;;
80936;SDS011;70395;51.382;7.074;2023-06-05T10:59:20;7.23;;;4.23;;
80936;SDS011;70395;51.382;7.074;2023-06-05T11:07:14;4.87;;;4.27;;
80936;SDS011;70395;51.382;7.074;2023-06-05T11:15:01;6.43;;;4.60;;
80936;SDS011;70395;51.382;7.074;2023-06-05T11:17:32;4.10;;;3.70;;
80936;SDS011;70395;51.382;7.074;2023-06-05T11:20:04;4.47;;;4.00;;
80936;SDS011;70395;51.382;7.074;2023-06-05T11:27:58;6.53;;;4.40;;
80936;SDS011;70395;51.382;7.074;2023-06-05T11:33:06;3.90;;;3.43;;
80936;SDS011;70395;51.382;7.074;2023-06-05T11:35:40;5.37;;;4.37;;
80936;SDS011;70395;51.382;7.074;2023-06-05T11:38:09;4.73;;;3.30;;
80936;SDS011;70395;51.382;7.074;2023-06-05T11:40:40;4.07;;;3.67;;
80936;SDS011;70395;51.382;7.074;2023-06-05T11:43:09;3.20;;;2.90;;
80936;SDS011;70395;51.382;7.074;2023-06-05T11:45:38;4.43;;;3.20;;
80936;SDS011;70395;51.382;7.074;2023-06-05T11:48:10;5.63;;;2.57;;
80936;SDS011;70395;51.382;7.074;2023-06-05T11:50:38;3.60;;;2.80;;
80936;SDS011;70395;51.382;7.074;2023-06-05T11:53:16;4.30;;;3.13;;
80936;SDS011;70395;51.382;7.074;2023-06-05T11:55:43;5.50;;;2.67;;
80936;SDS011;70395;51.382;7.074;2023-06-05T11:58:29;4.67;;;3.10;;
80936;SDS011;70395;51.382;7.074;2023-06-05T12:01:07;3.60;;;2.50;;
80936;SDS011;70395;51.382;7.074;2023-06-05T12:03:46;10.27;;;3.83;;
80936;SDS011;70395;51.382;7.074;2023-06-05T12:06:15;4.17;;;3.33;;
80936;SDS011;70395;51.382;7.074;2023-06-05T12:08:43;3.97;;;2.60;;
80936;SDS011;70395;51.382;7.074;2023-06-05T12:11:19;3.87;;;2.67;;
80936;SDS011;70395;51.382;7.074;2023-06-05T12:13:51;14.23;;;4.03;;
80936;SDS011;70395;51.382;7.074;2023-06-05T12:18:58;3.37;;;2.93;;
80936;SDS011;70395;51.382;7.074;2023-06-05T12:21:26;3.50;;;2.43;;
80936;SDS011;70395;51.382;7.074;2023-06-05T12:24:03;4.30;;;2.80;;
80936;SDS011;70395;51.382;7.074;2023-06-05T12:27:04;3.40;;;3.10;;
80936;SDS011;70395;51.382;7.074;2023-06-05T12:29:30;4.60;;;2.90;;
80936;SDS011;70395;51.382;7.074;2023-06-05T12:32:00;3.67;;;3.37;;
80936;SDS011;70395;51.382;7.074;2023-06-05T12:37:25;3.37;;;3.07;;
80936;SDS011;70395;51.382;7.074;2023-06-05T12:39:59;3.50;;;2.83;;
80936;SDS011;70395;51.382;7.074;2023-06-05T12:42:27;4.00;;;3.20;;
80936;SDS011;70395;51.382;7.074;2023-06-05T12:44:53;4.50;;;3.67;;
80936;SDS011;70395;51.382;7.074;2023-06-05T12:47:20;4.73;;;3.30;;
80936;SDS011;70395;51.382;7.074;2023-06-05T12:49:46;3.67;;;3.37;;
80936;SDS011;70395;51.382;7.074;2023-06-05T12:52:12;4.90;;;3.00;;
80936;SDS011;70395;51.382;7.074;2023-06-05T12:54:39;3.87;;;3.40;;
80936;SDS011;70395;51.382;7.074;2023-06-05T12:57:05;5.53;;;3.10;;
80936;SDS011;70395;51.382;7.074;2023-06-05T12:59:32;3.40;;;2.83;;
80936;SDS011;70395;51.382;7.074;2023-06-05T13:01:59;3.30;;;3.00;;
80936;SDS011;70395;51.382;7.074;2023-06-05T13:04:24;4.13;;;3.23;;
80936;SDS011;70395;51.382;7.074;2023-06-05T13:06:50;5.83;;;3.50;;
80936;SDS011;70395;51.382;7.074;2023-06-05T13:09:18;3.60;;;3.03;;
80936;SDS011;70395;51.382;7.074;2023-06-05T13:11:44;4.23;;;3.10;;
80936;SDS011;70395;51.382;7.074;2023-06-05T13:14:10;4.20;;;3.20;;
80936;SDS011;70395;51.382;7.074;2023-06-05T13:16:36;3.70;;;3.40;;
80936;SDS011;70395;51.382;7.074;2023-06-05T13:19:02;3.43;;;3.10;;
80936;SDS011;70395;51.382;7.074;2023-06-05T13:21:27;4.10;;;3.30;;
80936;SDS011;70395;51.382;7.074;2023-06-05T13:23:53;3.43;;;3.13;;
80936;SDS011;70395;51.382;7.074;2023-06-05T13:26:19;3.47;;;3.17;;
80936;SDS011;70395;51.382;7.074;2023-06-05T13:28:45;4.93;;;3.07;;
80936;SDS011;70395;51.382;7.074;2023-06-05T13:31:10;4.80;;;3.83;;
80936;SDS011;70395;51.382;7.074;2023-06-05T13:33:38;4.20;;;2.97;;
80936;SDS011;70395;51.382;7.074;2023-06-05T13:36:04;4.77;;;3.53;;
80936;SDS011;70395;51.382;7.074;2023-06-05T13:38:31;4.40;;;3.37;;
80936;SDS011;70395;51.382;7.074;2023-06-05T13:41:55;6.03;;;3.67;;
80936;SDS011;70395;51.382;7.074;2023-06-05T13:44:23;7.10;;;3.50;;
80936;SDS011;70395;51.382;7.074;2023-06-05T13:47:00;3.73;;;3.40;;
80936;SDS011;70395;51.382;7.074;2023-06-05T13:57:03;4.60;;;3.90;;
80936;SDS011;70395;51.382;7.074;2023-06-05T13:59:40;4.00;;;3.23;;
80936;SDS011;70395;51.382;7.074;2023-06-05T14:02:17;7.10;;;3.60;;
80936;SDS011;70395;51.382;7.074;2023-06-05T14:08:15;4.73;;;3.00;;
80936;SDS011;70395;51.382;7.074;2023-06-05T14:10:47;4.90;;;3.20;;
80936;SDS011;70395;51.382;7.074;2023-06-05T14:13:29;4.70;;;3.60;;
80936;SDS011;70395;51.382;7.074;2023-06-05T14:16:01;6.03;;;3.47;;
80936;SDS011;70395;51.382;7.074;2023-06-05T14:18:28;2.40;;;2.20;;
80936;SDS011;70395;51.382;7.074;2023-06-05T14:20:55;7.50;;;3.20;;
80936;SDS011;70395;51.382;7.074;2023-06-05T14:23:21;3.50;;;2.93;;
80936;SDS011;70395;51.382;7.074;2023-06-05T14:25:49;4.70;;;3.80;;
80936;SDS011;70395;51.382;7.074;2023-06-05T14:28:15;4.27;;;3.27;;
80936;SDS011;70395;51.382;7.074;2023-06-05T14:30:41;4.90;;;3.90;;
80936;SDS011;70395;51.382;7.074;2023-06-05T14:33:07;3.77;;;3.20;;
80936;SDS011;70395;51.382;7.074;2023-06-05T14:35:35;3.73;;;3.03;;
80936;SDS011;70395;51.382;7.074;2023-06-05T14:38:01;3.80;;;3.40;;
80936;SDS011;70395;51.382;7.074;2023-06-05T14:40:27;4.43;;;3.10;;
80936;SDS011;70395;51.382;7.074;2023-06-05T14:42:52;7.10;;;3.63;;
80936;SDS011;70395;51.382;7.074;2023-06-05T14:45:18;3.90;;;3.50;;
80936;SDS011;70395;51.382;7.074;2023-06-05T14:47:44;5.43;;;3.57;;
80936;SDS011;70395;51.382;7.074;2023-06-05T14:50:12;4.50;;;3.37;;
80936;SDS011;70395;51.382;7.074;2023-06-05T14:52:38;5.20;;;3.50;;
80936;SDS011;70395;51.382;7.074;2023-06-05T14:55:04;6.10;;;3.80;;
80936;SDS011;70395;51.382;7.074;2023-06-05T14:57:30;3.70;;;3.07;;
80936;SDS011;70395;51.382;7.074;2023-06-05T14:59:56;3.87;;;3.33;;
80936;SDS011;70395;51.382;7.074;2023-06-05T15:02:22;3.87;;;3.50;;
80936;SDS011;70395;51.382;7.074;2023-06-05T15:04:48;3.70;;;2.77;;
80936;SDS011;70395;51.382;7.074;2023-06-05T15:07:17;4.13;;;3.60;;
80936;SDS011;70395;51.382;7.074;2023-06-05T15:09:47;9.30;;;3.10;;
80936;SDS011;70395;51.382;7.074;2023-06-05T15:12:13;4.43;;;3.30;;
80936;SDS011;70395;51.382;7.074;2023-06-05T15:14:40;5.73;;;3.10;;
80936;SDS011;70395;51.382;7.074;2023-06-05T15:17:05;3.60;;;3.30;;
80936;SDS011;70395;51.382;7.074;2023-06-05T15:19:33;3.17;;;2.90;;
80936;SDS011;70395;51.382;7.074;2023-06-05T15:21:59;6.10;;;3.23;;
80936;SDS011;70395;51.382;7.074;2023-06-05T15:24:26;6.60;;;3.50;;
80936;SDS011;70395;51.382;7.074;2023-06-05T15:26:52;4.17;;;3.50;;
80936;SDS011;70395;51.382;7.074;2023-06-05T15:29:19;7.30;;;3.00;;
80936;SDS011;70395;51.382;7.074;2023-06-05T15:31:45;3.47;;;3.17;;
80936;SDS011;70395;51.382;7.074;2023-06-05T15:34:11;4.40;;;3.63;;
80936;SDS011;70395;51.382;7.074;2023-06-05T15:36:37;4.10;;;3.80;;
80936;SDS011;70395;51.382;7.074;2023-06-05T15:39:03;3.60;;;2.90;;
80936;SDS011;70395;51.382;7.074;2023-06-05T15:41:29;3.70;;;3.17;;
80936;SDS011;70395;51.382;7.074;2023-06-05T15:43:55;4.90;;;3.00;;
80936;SDS011;70395;51.382;7.074;2023-06-05T15:46:21;3.33;;;3.03;;
80936;SDS011;70395;51.382;7.074;2023-06-05T15:48:48;3.90;;;3.27;;
80936;SDS011;70395;51.382;7.074;2023-06-05T15:51:14;3.73;;;3.00;;
80936;SDS011;70395;51.382;7.074;2023-06-05T15:53:41;4.80;;;2.90;;
80936;SDS011;70395;51.382;7.074;2023-06-05T15:56:08;4.20;;;3.20;;
80936;SDS011;70395;51.382;7.074;2023-06-05T15:58:34;4.07;;;3.40;;